sensor_id;sensor_type;location;lat;lon;timestamp;temperature;humidity
14099;DHT22;7126;48.458;7.930;2023-03-23T00:01:11;12.70;99.90
14099;DHT22;7126;48.458;7.930;2023-03-23T00:03:45;12.70;99.90
14099;DHT22;7126;48.458;7.930;2023-03-23T00:06:11;12.70;99.90
14099;DHT22;7126;48.458;7.930;2023-03-23T00:08:42;12.70;99.90
14099;DHT22;7126;48.458;7.930;2023-03-23T00:11:13;12.60;99.90
14099;DHT22;7126;48.458;7.930;2023-03-23T00:13:42;12.50;99.90
14099;DHT22;7126;48.458;7.930;2023-03-23T00:16:10;12.40;99.90
14099;DHT22;7126;48.458;7.930;2023-03-23T00:18:50;12.40;99.90
14099;DHT22;7126;48.458;7.930;2023-03-23T00:21:20;12.30;99.90
14099;DHT22;7126;48.458;7.930;2023-03-23T00:23:51;12.30;99.90
14099;DHT22;7126;48.458;7.930;2023-03-23T00:26:17;12.20;99.90
14099;DHT22;7126;48.458;7.930;2023-03-23T00:28:43;12.20;99.90
14099;DHT22;7126;48.458;7.930;2023-03-23T00:31:12;12.20;99.90
14099;DHT22;7126;48.458;7.930;2023-03-23T00:33:38;12.20;99.90
14099;DHT22;7126;48.458;7.930;2023-03-23T00:36:08;12.20;99.90
14099;DHT22;7126;48.458;7.930;2023-03-23T00:38:34;12.20;99.90
14099;DHT22;7126;48.458;7.930;2023-03-23T00:41:00;12.20;99.90
14099;DHT22;7126;48.458;7.930;2023-03-23T00:43:28;12.20;99.90
14099;DHT22;7126;48.458;7.930;2023-03-23T00:45:55;12.20;99.90
14099;DHT22;7126;48.458;7.930;2023-03-23T00:48:24;12.30;99.90
14099;DHT22;7126;48.458;7.930;2023-03-23T00:50:51;12.30;99.90
14099;DHT22;7126;48.458;7.930;2023-03-23T00:53:18;12.30;99.90
14099;DHT22;7126;48.458;7.930;2023-03-23T00:55:45;12.30;99.90
14099;DHT22;7126;48.458;7.930;2023-03-23T00:58:12;12.40;99.90
14099;DHT22;7126;48.458;7.930;2023-03-23T01:00:38;12.40;99.90
14099;DHT22;7126;48.458;7.930;2023-03-23T01:03:04;12.40;99.90
14099;DHT22;7126;48.458;7.930;2023-03-23T01:05:35;12.50;99.90
14099;DHT22;7126;48.458;7.930;2023-03-23T01:08:01;12.50;99.90
14099;DHT22;7126;48.458;7.930;2023-03-23T01:10:27;12.50;99.90
14099;DHT22;7126;48.458;7.930;2023-03-23T01:12:53;12.60;99.90
14099;DHT22;7126;48.458;7.930;2023-03-23T01:15:19;12.60;99.90
14099;DHT22;7126;48.458;7.930;2023-03-23T01:17:45;12.70;99.90
14099;DHT22;7126;48.458;7.930;2023-03-23T01:20:12;12.70;99.90
14099;DHT22;7126;48.458;7.930;2023-03-23T01:22:39;12.70;99.90
14099;DHT22;7126;48.458;7.930;2023-03-23T01:25:06;12.70;99.90
14099;DHT22;7126;48.458;7.930;2023-03-23T01:27:32;12.80;99.90
14099;DHT22;7126;48.458;7.930;2023-03-23T01:29:57;12.70;99.90
14099;DHT22;7126;48.458;7.930;2023-03-23T01:32:23;12.80;99.90
14099;DHT22;7126;48.458;7.930;2023-03-23T01:34:48;12.70;99.90
14099;DHT22;7126;48.458;7.930;2023-03-23T01:37:14;12.70;99.90
14099;DHT22;7126;48.458;7.930;2023-03-23T01:39:41;12.70;99.90
14099;DHT22;7126;48.458;7.930;2023-03-23T01:42:08;12.60;99.90
14099;DHT22;7126;48.458;7.930;2023-03-23T01:46:59;12.60;99.90
14099;DHT22;7126;48.458;7.930;2023-03-23T01:49:29;12.50;99.90
14099;DHT22;7126;48.458;7.930;2023-03-23T01:51:59;12.50;99.90
14099;DHT22;7126;48.458;7.930;2023-03-23T01:54:27;12.50;99.90
14099;DHT22;7126;48.458;7.930;2023-03-23T01:56:56;12.40;99.90
14099;DHT22;7126;48.458;7.930;2023-03-23T01:59:23;12.50;99.90
14099;DHT22;7126;48.458;7.930;2023-03-23T02:01:51;12.50;99.90
14099;DHT22;7126;48.458;7.930;2023-03-23T02:04:17;12.50;99.90
14099;DHT22;7126;48.458;7.930;2023-03-23T02:06:44;12.50;99.90
14099;DHT22;7126;48.458;7.930;2023-03-23T02:09:11;12.50;99.90
14099;DHT22;7126;48.458;7.930;2023-03-23T02:11:39;12.50;99.90
14099;DHT22;7126;48.458;7.930;2023-03-23T02:14:05;12.50;99.90
14099;DHT22;7126;48.458;7.930;2023-03-23T02:27:04;12.40;99.90
14099;DHT22;7126;48.458;7.930;2023-03-23T02:35:11;12.50;99.90
14099;DHT22;7126;48.458;7.930;2023-03-23T02:37:48;12.50;99.90
14099;DHT22;7126;48.458;7.930;2023-03-23T02:40:21;12.50;99.90
14099;DHT22;7126;48.458;7.930;2023-03-23T02:42:51;12.60;99.90
14099;DHT22;7126;48.458;7.930;2023-03-23T02:45:19;12.60;99.90
14099;DHT22;7126;48.458;7.930;2023-03-23T02:47:48;12.60;99.90
14099;DHT22;7126;48.458;7.930;2023-03-23T02:50:16;12.60;99.90
14099;DHT22;7126;48.458;7.930;2023-03-23T02:52:45;12.70;99.90
14099;DHT22;7126;48.458;7.930;2023-03-23T02:55:12;12.70;99.90
14099;DHT22;7126;48.458;7.930;2023-03-23T02:57:39;12.70;99.90
14099;DHT22;7126;48.458;7.930;2023-03-23T03:00:06;12.70;99.90
14099;DHT22;7126;48.458;7.930;2023-03-23T03:02:38;12.70;99.90
14099;DHT22;7126;48.458;7.930;2023-03-23T03:15:59;12.90;99.90
14099;DHT22;7126;48.458;7.930;2023-03-23T03:18:32;12.90;99.90
14099;DHT22;7126;48.458;7.930;2023-03-23T03:21:03;12.90;99.90
14099;DHT22;7126;48.458;7.930;2023-03-23T03:23:31;12.90;99.90
14099;DHT22;7126;48.458;7.930;2023-03-23T03:26:00;12.90;99.90
14099;DHT22;7126;48.458;7.930;2023-03-23T03:28:27;12.90;99.90
14099;DHT22;7126;48.458;7.930;2023-03-23T03:30:57;12.90;99.90
14099;DHT22;7126;48.458;7.930;2023-03-23T03:33:27;12.90;99.90
14099;DHT22;7126;48.458;7.930;2023-03-23T03:35:57;13.00;99.90
14099;DHT22;7126;48.458;7.930;2023-03-23T03:38:24;13.00;99.90
14099;DHT22;7126;48.458;7.930;2023-03-23T03:40:50;13.10;99.90
14099;DHT22;7126;48.458;7.930;2023-03-23T03:43:16;13.20;99.90
14099;DHT22;7126;48.458;7.930;2023-03-23T03:45:42;13.20;99.90
14099;DHT22;7126;48.458;7.930;2023-03-23T03:48:08;13.30;99.90
14099;DHT22;7126;48.458;7.930;2023-03-23T03:50:33;13.30;99.90
14099;DHT22;7126;48.458;7.930;2023-03-23T03:52:59;13.30;99.90
14099;DHT22;7126;48.458;7.930;2023-03-23T03:55:24;13.30;99.90
14099;DHT22;7126;48.458;7.930;2023-03-23T03:57:50;13.30;99.90
14099;DHT22;7126;48.458;7.930;2023-03-23T04:00:16;13.30;99.90
14099;DHT22;7126;48.458;7.930;2023-03-23T04:02:44;13.40;99.90
14099;DHT22;7126;48.458;7.930;2023-03-23T04:05:13;13.40;99.90
14099;DHT22;7126;48.458;7.930;2023-03-23T04:07:39;13.40;99.90
14099;DHT22;7126;48.458;7.930;2023-03-23T04:10:09;13.40;99.90
14099;DHT22;7126;48.458;7.930;2023-03-23T04:12:35;13.50;99.90
14099;DHT22;7126;48.458;7.930;2023-03-23T04:15:02;13.50;99.90
14099;DHT22;7126;48.458;7.930;2023-03-23T04:17:28;13.50;99.90
14099;DHT22;7126;48.458;7.930;2023-03-23T04:19:54;13.50;99.90
14099;DHT22;7126;48.458;7.930;2023-03-23T04:22:26;13.50;99.90
14099;DHT22;7126;48.458;7.930;2023-03-23T04:24:56;13.50;99.90
14099;DHT22;7126;48.458;7.930;2023-03-23T04:27:24;13.50;99.90
14099;DHT22;7126;48.458;7.930;2023-03-23T04:29:50;13.60;99.90
14099;DHT22;7126;48.458;7.930;2023-03-23T04:32:16;13.70;99.90
14099;DHT22;7126;48.458;7.930;2023-03-23T04:34:43;13.70;99.90
14099;DHT22;7126;48.458;7.930;2023-03-23T04:37:09;13.70;99.90
14099;DHT22;7126;48.458;7.930;2023-03-23T04:39:35;13.90;99.90
14099;DHT22;7126;48.458;7.930;2023-03-23T04:42:01;14.00;99.90
14099;DHT22;7126;48.458;7.930;2023-03-23T04:44:27;14.00;99.90
14099;DHT22;7126;48.458;7.930;2023-03-23T04:46:53;14.10;99.90
14099;DHT22;7126;48.458;7.930;2023-03-23T04:49:19;14.10;99.90
14099;DHT22;7126;48.458;7.930;2023-03-23T04:51:47;14.10;99.90
14099;DHT22;7126;48.458;7.930;2023-03-23T04:54:13;14.10;99.90
14099;DHT22;7126;48.458;7.930;2023-03-23T04:56:39;14.20;99.90
14099;DHT22;7126;48.458;7.930;2023-03-23T04:59:06;14.10;99.90
14099;DHT22;7126;48.458;7.930;2023-03-23T05:01:32;14.10;99.90
14099;DHT22;7126;48.458;7.930;2023-03-23T05:03:59;14.20;99.90
14099;DHT22;7126;48.458;7.930;2023-03-23T05:06:25;14.20;99.90
14099;DHT22;7126;48.458;7.930;2023-03-23T05:08:51;14.20;99.90
14099;DHT22;7126;48.458;7.930;2023-03-23T05:11:17;14.20;99.90
14099;DHT22;7126;48.458;7.930;2023-03-23T05:13:42;14.20;99.90
14099;DHT22;7126;48.458;7.930;2023-03-23T05:16:09;14.20;99.90
14099;DHT22;7126;48.458;7.930;2023-03-23T05:18:35;14.20;99.90
14099;DHT22;7126;48.458;7.930;2023-03-23T05:21:01;14.30;99.90
14099;DHT22;7126;48.458;7.930;2023-03-23T05:23:27;14.30;99.90
14099;DHT22;7126;48.458;7.930;2023-03-23T05:25:57;14.30;99.90
14099;DHT22;7126;48.458;7.930;2023-03-23T05:28:28;14.30;99.90
14099;DHT22;7126;48.458;7.930;2023-03-23T05:30:56;14.30;99.90
14099;DHT22;7126;48.458;7.930;2023-03-23T05:33:21;14.30;99.90
14099;DHT22;7126;48.458;7.930;2023-03-23T05:35:47;14.30;99.90
14099;DHT22;7126;48.458;7.930;2023-03-23T05:38:14;14.30;99.90
14099;DHT22;7126;48.458;7.930;2023-03-23T05:40:40;14.30;99.90
14099;DHT22;7126;48.458;7.930;2023-03-23T05:43:07;14.20;99.90
14099;DHT22;7126;48.458;7.930;2023-03-23T05:45:33;14.20;99.90
14099;DHT22;7126;48.458;7.930;2023-03-23T05:47:59;14.20;99.90
14099;DHT22;7126;48.458;7.930;2023-03-23T05:50:25;14.10;99.90
14099;DHT22;7126;48.458;7.930;2023-03-23T05:52:51;14.10;99.90
14099;DHT22;7126;48.458;7.930;2023-03-23T05:55:17;14.10;99.90
14099;DHT22;7126;48.458;7.930;2023-03-23T05:57:43;14.00;99.90
14099;DHT22;7126;48.458;7.930;2023-03-23T06:00:09;14.00;99.90
14099;DHT22;7126;48.458;7.930;2023-03-23T06:02:46;14.00;99.90
14099;DHT22;7126;48.458;7.930;2023-03-23T06:05:11;14.00;99.90
14099;DHT22;7126;48.458;7.930;2023-03-23T06:07:37;14.10;99.90
14099;DHT22;7126;48.458;7.930;2023-03-23T06:10:06;14.00;99.90
14099;DHT22;7126;48.458;7.930;2023-03-23T06:12:32;14.00;99.90
14099;DHT22;7126;48.458;7.930;2023-03-23T06:14:58;13.90;99.90
14099;DHT22;7126;48.458;7.930;2023-03-23T06:17:24;13.80;99.90
14099;DHT22;7126;48.458;7.930;2023-03-23T06:19:49;13.80;99.90
14099;DHT22;7126;48.458;7.930;2023-03-23T06:22:16;13.80;99.90
14099;DHT22;7126;48.458;7.930;2023-03-23T06:24:42;13.70;99.90
14099;DHT22;7126;48.458;7.930;2023-03-23T06:27:07;13.70;99.90
14099;DHT22;7126;48.458;7.930;2023-03-23T06:29:34;13.70;99.90
14099;DHT22;7126;48.458;7.930;2023-03-23T06:32:01;13.60;99.90
14099;DHT22;7126;48.458;7.930;2023-03-23T06:34:28;13.60;99.90
14099;DHT22;7126;48.458;7.930;2023-03-23T06:36:57;13.60;99.90
14099;DHT22;7126;48.458;7.930;2023-03-23T06:39:22;13.60;99.90
14099;DHT22;7126;48.458;7.930;2023-03-23T06:41:48;13.60;99.90
14099;DHT22;7126;48.458;7.930;2023-03-23T06:44:14;13.60;99.90
14099;DHT22;7126;48.458;7.930;2023-03-23T06:46:41;13.60;99.90
14099;DHT22;7126;48.458;7.930;2023-03-23T06:49:07;13.60;99.90
14099;DHT22;7126;48.458;7.930;2023-03-23T06:51:33;13.60;99.90
14099;DHT22;7126;48.458;7.930;2023-03-23T06:53:59;13.70;99.90
14099;DHT22;7126;48.458;7.930;2023-03-23T06:56:24;13.60;99.90
14099;DHT22;7126;48.458;7.930;2023-03-23T06:58:50;13.60;99.90
14099;DHT22;7126;48.458;7.930;2023-03-23T07:01:16;13.70;99.90
14099;DHT22;7126;48.458;7.930;2023-03-23T07:03:42;13.60;99.90
14099;DHT22;7126;48.458;7.930;2023-03-23T07:06:08;13.60;99.90
14099;DHT22;7126;48.458;7.930;2023-03-23T07:08:34;13.60;99.90
14099;DHT22;7126;48.458;7.930;2023-03-23T07:11:00;13.50;99.90
14099;DHT22;7126;48.458;7.930;2023-03-23T07:13:26;13.50;99.90
14099;DHT22;7126;48.458;7.930;2023-03-23T07:15:52;13.50;99.90
14099;DHT22;7126;48.458;7.930;2023-03-23T07:18:18;13.50;99.90
14099;DHT22;7126;48.458;7.930;2023-03-23T07:20:46;13.50;99.90
14099;DHT22;7126;48.458;7.930;2023-03-23T07:23:12;13.60;99.90
14099;DHT22;7126;48.458;7.930;2023-03-23T07:25:37;13.50;99.90
14099;DHT22;7126;48.458;7.930;2023-03-23T07:28:03;13.50;99.90
14099;DHT22;7126;48.458;7.930;2023-03-23T07:30:29;13.60;99.90
14099;DHT22;7126;48.458;7.930;2023-03-23T07:32:58;13.60;99.90
14099;DHT22;7126;48.458;7.930;2023-03-23T07:35:24;13.60;99.90
14099;DHT22;7126;48.458;7.930;2023-03-23T07:37:51;13.70;99.90
14099;DHT22;7126;48.458;7.930;2023-03-23T07:40:18;13.60;99.90
14099;DHT22;7126;48.458;7.930;2023-03-23T07:42:46;13.60;99.90
14099;DHT22;7126;48.458;7.930;2023-03-23T07:45:15;13.60;99.90
14099;DHT22;7126;48.458;7.930;2023-03-23T07:47:41;13.60;99.90
14099;DHT22;7126;48.458;7.930;2023-03-23T07:50:08;13.60;99.90
14099;DHT22;7126;48.458;7.930;2023-03-23T07:52:35;13.50;99.90
14099;DHT22;7126;48.458;7.930;2023-03-23T07:55:01;13.60;99.90
14099;DHT22;7126;48.458;7.930;2023-03-23T07:57:29;13.50;99.90
14099;DHT22;7126;48.458;7.930;2023-03-23T07:59:55;13.50;99.90
14099;DHT22;7126;48.458;7.930;2023-03-23T08:02:22;13.50;99.90
14099;DHT22;7126;48.458;7.930;2023-03-23T08:04:47;13.50;99.90
14099;DHT22;7126;48.458;7.930;2023-03-23T08:07:14;13.60;99.90
14099;DHT22;7126;48.458;7.930;2023-03-23T08:09:42;13.60;99.90
14099;DHT22;7126;48.458;7.930;2023-03-23T08:12:07;13.60;99.90
14099;DHT22;7126;48.458;7.930;2023-03-23T08:14:33;13.60;99.90
14099;DHT22;7126;48.458;7.930;2023-03-23T08:16:59;13.70;99.90
14099;DHT22;7126;48.458;7.930;2023-03-23T08:19:25;13.80;99.90
14099;DHT22;7126;48.458;7.930;2023-03-23T08:21:51;13.90;99.90
14099;DHT22;7126;48.458;7.930;2023-03-23T08:24:17;13.90;99.90
14099;DHT22;7126;48.458;7.930;2023-03-23T08:26:42;13.90;99.90
14099;DHT22;7126;48.458;7.930;2023-03-23T08:29:08;14.00;99.90
14099;DHT22;7126;48.458;7.930;2023-03-23T08:31:34;14.00;99.90
14099;DHT22;7126;48.458;7.930;2023-03-23T08:34:01;14.10;99.90
14099;DHT22;7126;48.458;7.930;2023-03-23T08:36:27;14.10;99.90
14099;DHT22;7126;48.458;7.930;2023-03-23T08:38:54;14.10;99.90
14099;DHT22;7126;48.458;7.930;2023-03-23T08:41:20;14.20;99.90
14099;DHT22;7126;48.458;7.930;2023-03-23T08:43:46;14.20;99.90
14099;DHT22;7126;48.458;7.930;2023-03-23T08:46:12;14.20;99.90
14099;DHT22;7126;48.458;7.930;2023-03-23T08:48:38;14.30;99.90
14099;DHT22;7126;48.458;7.930;2023-03-23T08:51:07;14.30;99.90
14099;DHT22;7126;48.458;7.930;2023-03-23T08:53:33;14.30;99.90
14099;DHT22;7126;48.458;7.930;2023-03-23T08:56:04;14.30;99.90
14099;DHT22;7126;48.458;7.930;2023-03-23T08:58:30;14.40;99.90
14099;DHT22;7126;48.458;7.930;2023-03-23T09:00:55;14.40;99.90
14099;DHT22;7126;48.458;7.930;2023-03-23T09:03:21;14.40;99.90
14099;DHT22;7126;48.458;7.930;2023-03-23T09:05:47;14.50;99.90
14099;DHT22;7126;48.458;7.930;2023-03-23T09:08:12;14.50;99.90
14099;DHT22;7126;48.458;7.930;2023-03-23T09:10:39;14.50;99.90
14099;DHT22;7126;48.458;7.930;2023-03-23T09:13:05;14.60;99.90
14099;DHT22;7126;48.458;7.930;2023-03-23T09:15:32;14.70;99.90
14099;DHT22;7126;48.458;7.930;2023-03-23T09:17:58;14.80;99.90
14099;DHT22;7126;48.458;7.930;2023-03-23T09:20:26;14.80;99.90
14099;DHT22;7126;48.458;7.930;2023-03-23T09:22:54;14.90;99.90
14099;DHT22;7126;48.458;7.930;2023-03-23T09:25:22;15.00;99.90
14099;DHT22;7126;48.458;7.930;2023-03-23T09:27:53;15.00;99.90
14099;DHT22;7126;48.458;7.930;2023-03-23T09:30:22;15.10;99.90
14099;DHT22;7126;48.458;7.930;2023-03-23T09:32:48;15.30;99.90
14099;DHT22;7126;48.458;7.930;2023-03-23T09:35:15;15.40;99.90
14099;DHT22;7126;48.458;7.930;2023-03-23T09:37:44;15.50;99.90
14099;DHT22;7126;48.458;7.930;2023-03-23T09:40:18;15.60;99.90
14099;DHT22;7126;48.458;7.930;2023-03-23T09:43:16;15.60;99.90
14099;DHT22;7126;48.458;7.930;2023-03-23T09:45:59;15.60;99.90
14099;DHT22;7126;48.458;7.930;2023-03-23T09:48:37;15.70;99.90
14099;DHT22;7126;48.458;7.930;2023-03-23T09:54:12;15.70;99.90
14099;DHT22;7126;48.458;7.930;2023-03-23T09:56:39;15.80;99.90
14099;DHT22;7126;48.458;7.930;2023-03-23T10:02:02;15.80;99.90
14099;DHT22;7126;48.458;7.930;2023-03-23T10:04:41;15.90;99.90
14099;DHT22;7126;48.458;7.930;2023-03-23T10:07:12;15.80;99.90
14099;DHT22;7126;48.458;7.930;2023-03-23T10:09:39;15.80;99.90
14099;DHT22;7126;48.458;7.930;2023-03-23T10:12:18;15.80;99.90
14099;DHT22;7126;48.458;7.930;2023-03-23T10:14:48;15.80;99.90
14099;DHT22;7126;48.458;7.930;2023-03-23T10:20:23;15.70;99.90
14099;DHT22;7126;48.458;7.930;2023-03-23T10:23:13;15.70;99.90
14099;DHT22;7126;48.458;7.930;2023-03-23T10:25:52;15.70;99.90
14099;DHT22;7126;48.458;7.930;2023-03-23T10:28:21;15.70;99.90
14099;DHT22;7126;48.458;7.930;2023-03-23T10:30:51;15.80;99.90
14099;DHT22;7126;48.458;7.930;2023-03-23T10:35:57;15.90;99.90
14099;DHT22;7126;48.458;7.930;2023-03-23T10:38:29;15.90;99.90
14099;DHT22;7126;48.458;7.930;2023-03-23T10:41:00;16.00;99.90
14099;DHT22;7126;48.458;7.930;2023-03-23T10:43:27;16.10;99.90
14099;DHT22;7126;48.458;7.930;2023-03-23T10:46:03;16.10;99.90
14099;DHT22;7126;48.458;7.930;2023-03-23T10:48:35;16.10;99.90
14099;DHT22;7126;48.458;7.930;2023-03-23T10:51:04;16.20;99.90
14099;DHT22;7126;48.458;7.930;2023-03-23T10:53:56;16.20;99.90
14099;DHT22;7126;48.458;7.930;2023-03-23T10:56:26;16.20;99.90
14099;DHT22;7126;48.458;7.930;2023-03-23T10:58:53;16.30;99.90
14099;DHT22;7126;48.458;7.930;2023-03-23T11:01:32;16.30;99.90
14099;DHT22;7126;48.458;7.930;2023-03-23T11:03:58;16.30;99.90
14099;DHT22;7126;48.458;7.930;2023-03-23T11:06:32;16.40;99.90
14099;DHT22;7126;48.458;7.930;2023-03-23T11:09:09;16.40;99.90
14099;DHT22;7126;48.458;7.930;2023-03-23T11:11:41;16.40;99.90
14099;DHT22;7126;48.458;7.930;2023-03-23T11:14:19;16.40;99.90
14099;DHT22;7126;48.458;7.930;2023-03-23T11:17:05;16.30;99.90
14099;DHT22;7126;48.458;7.930;2023-03-23T11:19:36;16.30;99.90
14099;DHT22;7126;48.458;7.930;2023-03-23T11:22:08;16.30;99.90
14099;DHT22;7126;48.458;7.930;2023-03-23T11:24:47;16.20;99.90
14099;DHT22;7126;48.458;7.930;2023-03-23T11:27:14;16.20;99.90
14099;DHT22;7126;48.458;7.930;2023-03-23T11:32:16;16.10;99.90
14099;DHT22;7126;48.458;7.930;2023-03-23T11:37:19;16.10;99.90
14099;DHT22;7126;48.458;7.930;2023-03-23T11:40:29;16.20;99.90
14099;DHT22;7126;48.458;7.930;2023-03-23T11:43:11;16.20;99.90
14099;DHT22;7126;48.458;7.930;2023-03-23T11:48:28;16.20;99.90
14099;DHT22;7126;48.458;7.930;2023-03-23T11:51:06;16.20;99.90
14099;DHT22;7126;48.458;7.930;2023-03-23T11:56:30;16.30;99.90
14099;DHT22;7126;48.458;7.930;2023-03-23T11:58:58;16.30;99.90
14099;DHT22;7126;48.458;7.930;2023-03-23T12:01:48;16.30;99.90
14099;DHT22;7126;48.458;7.930;2023-03-23T12:04:57;16.30;99.90
14099;DHT22;7126;48.458;7.930;2023-03-23T12:07:44;16.40;99.90
14099;DHT22;7126;48.458;7.930;2023-03-23T12:14:10;16.50;99.90
14099;DHT22;7126;48.458;7.930;2023-03-23T12:16:44;16.50;99.90
14099;DHT22;7126;48.458;7.930;2023-03-23T12:19:37;16.50;99.90
14099;DHT22;7126;48.458;7.930;2023-03-23T12:36:41;16.90;99.90
14099;DHT22;7126;48.458;7.930;2023-03-23T12:39:31;16.90;99.90
14099;DHT22;7126;48.458;7.930;2023-03-23T12:42:03;16.90;99.90
14099;DHT22;7126;48.458;7.930;2023-03-23T12:44:59;16.90;99.90
14099;DHT22;7126;48.458;7.930;2023-03-23T12:47:41;16.90;99.90
14099;DHT22;7126;48.458;7.930;2023-03-23T13:03:14;17.20;99.90
14099;DHT22;7126;48.458;7.930;2023-03-23T13:08:35;17.30;99.90
14099;DHT22;7126;48.458;7.930;2023-03-23T13:11:04;17.40;99.90
14099;DHT22;7126;48.458;7.930;2023-03-23T13:13:48;17.40;99.90
14099;DHT22;7126;48.458;7.930;2023-03-23T13:16:37;17.40;99.90
14099;DHT22;7126;48.458;7.930;2023-03-23T13:24:46;17.60;99.90
14099;DHT22;7126;48.458;7.930;2023-03-23T13:27:15;17.60;99.90
14099;DHT22;7126;48.458;7.930;2023-03-23T13:29:45;17.70;99.90
14099;DHT22;7126;48.458;7.930;2023-03-23T13:32:16;17.60;99.90
14099;DHT22;7126;48.458;7.930;2023-03-23T13:34:42;17.70;99.90
14099;DHT22;7126;48.458;7.930;2023-03-23T13:39:55;17.70;99.90
14099;DHT22;7126;48.458;7.930;2023-03-23T13:42:30;17.60;99.90
14099;DHT22;7126;48.458;7.930;2023-03-23T13:47:41;17.50;99.90
14099;DHT22;7126;48.458;7.930;2023-03-23T13:50:43;17.50;99.90
14099;DHT22;7126;48.458;7.930;2023-03-23T13:53:00;17.40;99.90
14099;DHT22;7126;48.458;7.930;2023-03-23T14:06:05;17.40;99.90
14099;DHT22;7126;48.458;7.930;2023-03-23T14:11:17;17.50;99.90
14099;DHT22;7126;48.458;7.930;2023-03-23T14:16:40;17.50;99.90
14099;DHT22;7126;48.458;7.930;2023-03-23T14:19:28;17.50;99.90
14099;DHT22;7126;48.458;7.930;2023-03-23T14:21:58;17.60;99.90
14099;DHT22;7126;48.458;7.930;2023-03-23T14:24:31;17.60;99.90
14099;DHT22;7126;48.458;7.930;2023-03-23T14:27:13;17.60;99.90
14099;DHT22;7126;48.458;7.930;2023-03-23T14:29:39;17.60;99.90
14099;DHT22;7126;48.458;7.930;2023-03-23T14:32:07;17.60;99.90
14099;DHT22;7126;48.458;7.930;2023-03-23T14:34:35;17.60;99.90
14099;DHT22;7126;48.458;7.930;2023-03-23T14:37:01;17.60;99.90
14099;DHT22;7126;48.458;7.930;2023-03-23T14:39:29;17.60;99.90
14099;DHT22;7126;48.458;7.930;2023-03-23T14:42:02;17.60;99.90
14099;DHT22;7126;48.458;7.930;2023-03-23T14:44:33;17.50;99.90
14099;DHT22;7126;48.458;7.930;2023-03-23T14:47:03;17.50;99.90
14099;DHT22;7126;48.458;7.930;2023-03-23T14:49:38;17.50;99.90
14099;DHT22;7126;48.458;7.930;2023-03-23T14:54:34;17.50;99.90
14099;DHT22;7126;48.458;7.930;2023-03-23T14:57:11;17.50;99.90
14099;DHT22;7126;48.458;7.930;2023-03-23T14:59:40;17.50;99.90
14099;DHT22;7126;48.458;7.930;2023-03-23T15:02:08;17.50;99.90
14099;DHT22;7126;48.458;7.930;2023-03-23T15:04:35;17.50;99.90
14099;DHT22;7126;48.458;7.930;2023-03-23T15:07:04;17.50;99.90
14099;DHT22;7126;48.458;7.930;2023-03-23T15:09:31;17.50;99.90
14099;DHT22;7126;48.458;7.930;2023-03-23T15:11:58;17.50;99.90
14099;DHT22;7126;48.458;7.930;2023-03-23T15:14:34;17.50;99.90
14099;DHT22;7126;48.458;7.930;2023-03-23T15:17:02;17.50;99.90
14099;DHT22;7126;48.458;7.930;2023-03-23T15:19:34;17.50;99.90
14099;DHT22;7126;48.458;7.930;2023-03-23T15:24:38;17.50;99.90
14099;DHT22;7126;48.458;7.930;2023-03-23T15:27:33;17.50;99.90
14099;DHT22;7126;48.458;7.930;2023-03-23T15:30:12;17.40;99.90
14099;DHT22;7126;48.458;7.930;2023-03-23T15:32:39;17.40;99.90
14099;DHT22;7126;48.458;7.930;2023-03-23T15:35:13;17.40;99.90
14099;DHT22;7126;48.458;7.930;2023-03-23T15:37:47;17.30;99.90
14099;DHT22;7126;48.458;7.930;2023-03-23T15:42:43;17.30;99.90
14099;DHT22;7126;48.458;7.930;2023-03-23T15:52:53;17.30;99.90
14099;DHT22;7126;48.458;7.930;2023-03-23T15:57:44;17.20;99.90
14099;DHT22;7126;48.458;7.930;2023-03-23T16:00:10;17.20;99.90
14099;DHT22;7126;48.458;7.930;2023-03-23T16:02:36;17.20;99.90
14099;DHT22;7126;48.458;7.930;2023-03-23T16:05:02;17.20;99.90
14099;DHT22;7126;48.458;7.930;2023-03-23T16:07:28;17.10;99.90
14099;DHT22;7126;48.458;7.930;2023-03-23T16:09:53;17.10;99.90
14099;DHT22;7126;48.458;7.930;2023-03-23T16:12:19;17.00;99.90
14099;DHT22;7126;48.458;7.930;2023-03-23T16:14:45;17.00;99.90
14099;DHT22;7126;48.458;7.930;2023-03-23T16:17:12;17.00;99.90
14099;DHT22;7126;48.458;7.930;2023-03-23T16:19:40;16.90;99.90
14099;DHT22;7126;48.458;7.930;2023-03-23T16:22:05;16.90;99.90
14099;DHT22;7126;48.458;7.930;2023-03-23T16:24:31;16.90;99.90
14099;DHT22;7126;48.458;7.930;2023-03-23T16:26:57;16.90;99.90
14099;DHT22;7126;48.458;7.930;2023-03-23T16:29:22;16.90;99.90
14099;DHT22;7126;48.458;7.930;2023-03-23T16:31:48;16.80;99.90
14099;DHT22;7126;48.458;7.930;2023-03-23T16:34:13;16.80;99.90
14099;DHT22;7126;48.458;7.930;2023-03-23T16:36:39;16.80;99.90
14099;DHT22;7126;48.458;7.930;2023-03-23T16:39:05;16.80;99.90
14099;DHT22;7126;48.458;7.930;2023-03-23T16:41:30;16.80;99.90
14099;DHT22;7126;48.458;7.930;2023-03-23T16:43:56;16.90;99.90
14099;DHT22;7126;48.458;7.930;2023-03-23T16:46:22;16.80;99.90
14099;DHT22;7126;48.458;7.930;2023-03-23T16:48:47;16.90;99.90
14099;DHT22;7126;48.458;7.930;2023-03-23T16:51:13;16.80;99.90
14099;DHT22;7126;48.458;7.930;2023-03-23T16:53:38;16.80;99.90
14099;DHT22;7126;48.458;7.930;2023-03-23T16:56:04;16.80;99.90
14099;DHT22;7126;48.458;7.930;2023-03-23T16:58:30;16.80;99.90
14099;DHT22;7126;48.458;7.930;2023-03-23T17:00:55;16.80;99.90
14099;DHT22;7126;48.458;7.930;2023-03-23T17:03:21;16.70;99.90
14099;DHT22;7126;48.458;7.930;2023-03-23T17:05:48;16.70;99.90
14099;DHT22;7126;48.458;7.930;2023-03-23T17:08:15;16.70;99.90
14099;DHT22;7126;48.458;7.930;2023-03-23T17:10:41;16.70;99.90
14099;DHT22;7126;48.458;7.930;2023-03-23T17:13:08;16.70;99.90
14099;DHT22;7126;48.458;7.930;2023-03-23T17:15:36;16.60;99.90
14099;DHT22;7126;48.458;7.930;2023-03-23T17:18:02;16.60;99.90
14099;DHT22;7126;48.458;7.930;2023-03-23T17:20:28;16.60;99.90
14099;DHT22;7126;48.458;7.930;2023-03-23T17:22:54;16.60;99.90
14099;DHT22;7126;48.458;7.930;2023-03-23T17:25:19;16.60;99.90
14099;DHT22;7126;48.458;7.930;2023-03-23T17:27:45;16.50;99.90
14099;DHT22;7126;48.458;7.930;2023-03-23T17:30:12;16.50;99.90
14099;DHT22;7126;48.458;7.930;2023-03-23T17:32:38;16.50;99.90
14099;DHT22;7126;48.458;7.930;2023-03-23T17:35:04;16.50;99.90
14099;DHT22;7126;48.458;7.930;2023-03-23T17:37:31;16.50;99.90
14099;DHT22;7126;48.458;7.930;2023-03-23T17:39:56;16.50;99.90
14099;DHT22;7126;48.458;7.930;2023-03-23T17:42:22;16.50;99.90
14099;DHT22;7126;48.458;7.930;2023-03-23T17:44:48;16.50;99.90
14099;DHT22;7126;48.458;7.930;2023-03-23T17:47:14;16.50;99.90
14099;DHT22;7126;48.458;7.930;2023-03-23T17:49:40;16.50;99.90
14099;DHT22;7126;48.458;7.930;2023-03-23T17:52:05;16.50;99.90
14099;DHT22;7126;48.458;7.930;2023-03-23T17:54:31;16.40;99.90
14099;DHT22;7126;48.458;7.930;2023-03-23T17:56:57;16.40;99.90
14099;DHT22;7126;48.458;7.930;2023-03-23T17:59:24;16.40;99.90
14099;DHT22;7126;48.458;7.930;2023-03-23T18:01:50;16.40;99.90
14099;DHT22;7126;48.458;7.930;2023-03-23T18:04:16;16.40;99.90
14099;DHT22;7126;48.458;7.930;2023-03-23T18:06:42;16.40;99.90